Time;durP1;ratioP1;P1;durP2;ratioP2;P2;SDS_P1;SDS_P2;PMS_P1;PMS_P2;Temp;Humidity;BMP_temperature;BMP_pressure;BME280_temperature;BME280_humidity;BME280_pressure;Samples;Min_cycle;Max_cycle;Signal;HPM_P1;HPM_P2
2024/03/23 00:01:50;;;;;;;2.80;0.63;;;12.60;62.00;;;;;;5124379;27;20503;-59
2024/03/23 00:04:20;;;;;;;0.90;0.60;;;12.60;93.50;;;;;;5125325;27;20427;-59
2024/03/23 00:06:51;;;;;;;2.22;0.70;;;12.60;99.90;;;;;;5125265;27;20834;-59
2024/03/23 00:09:21;;;;;;;2.10;0.60;;;12.60;99.90;;;;;;5120005;27;20420;-59
2024/03/23 00:11:50;;;;;;;1.83;0.60;;;12.60;99.90;;;;;;5111473;28;20749;-60
2024/03/23 00:14:16;;;;;;;2.20;0.60;;;12.60;99.90;;;;;;5113992;28;20420;-58
2024/03/23 00:16:44;;;;;;;0.90;0.70;;;12.60;99.90;;;;;;5114463;28;20430;-60
2024/03/23 00:19:11;;;;;;;0.98;0.50;;;12.50;99.90;;;;;;5114413;28;20467;-60
2024/03/23 00:21:40;;;;;;;1.10;0.60;;;12.60;99.90;;;;;;5114489;28;20461;-59
2024/03/23 00:24:07;;;;;;;1.00;0.60;;;12.60;99.90;;;;;;5114521;28;20416;-60
2024/03/23 00:26:38;;;;;;;2.00;0.60;;;12.60;99.90;;;;;;5115961;28;20828;-60
2024/03/23 00:29:08;;;;;;;0.95;0.60;;;12.60;99.90;;;;;;5112555;28;20483;-59
2024/03/23 00:31:38;;;;;;;1.20;0.60;;;12.50;99.90;;;;;;5115993;28;20836;-59
2024/03/23 00:34:08;;;;;;;0.80;0.50;;;12.60;99.90;;;;;;5113561;28;20531;-59
2024/03/23 00:36:39;;;;;;;1.17;0.60;;;12.60;99.90;;;;;;5113555;28;20485;-59
2024/03/23 00:39:09;;;;;;;1.00;0.60;;;12.50;99.90;;;;;;5113996;28;20408;-59
2024/03/23 00:41:39;;;;;;;1.38;0.55;;;12.50;99.90;;;;;;5115139;28;20435;-59
2024/03/23 00:44:09;;;;;;;1.00;0.60;;;12.50;99.90;;;;;;5114280;28;20504;-59
2024/03/23 00:46:39;;;;;;;1.20;0.60;;;12.50;99.90;;;;;;5114083;28;20424;-59
2024/03/23 00:49:09;;;;;;;1.77;0.50;;;12.40;99.90;;;;;;5113494;28;20427;-59
2024/03/23 00:51:38;;;;;;;1.30;0.60;;;12.40;99.90;;;;;;5114790;28;20896;-58
2024/03/23 00:54:04;;;;;;;0.80;0.50;;;12.30;99.90;;;;;;5115341;28;20423;-59
2024/03/23 00:56:31;;;;;;;1.20;0.60;;;12.20;99.90;;;;;;5114670;28;20927;-59
2024/03/23 00:58:57;;;;;;;0.70;0.50;;;12.20;99.90;;;;;;5115723;28;20897;-59
2024/03/23 01:01:24;;;;;;;1.08;0.55;;;12.30;99.90;;;;;;5114931;28;20511;-59
2024/03/23 01:03:50;;;;;;;1.20;0.60;;;12.30;99.90;;;;;;5114215;28;20414;-59
2024/03/23 01:06:17;;;;;;;0.68;0.50;;;12.30;99.90;;;;;;5115791;28;20537;-59
2024/03/23 01:08:45;;;;;;;0.88;0.55;;;12.30;99.90;;;;;;5118654;28;20432;-59
2024/03/23 01:11:13;;;;;;;1.90;0.50;;;12.40;99.90;;;;;;5116007;28;20525;-60
2024/03/23 01:13:39;;;;;;;1.10;0.60;;;12.50;99.90;;;;;;5117029;28;20424;-59
2024/03/23 01:16:06;;;;;;;0.80;0.50;;;12.50;99.90;;;;;;5118148;28;20828;-59
2024/03/23 01:18:32;;;;;;;0.90;0.57;;;12.50;99.90;;;;;;5118029;28;20424;-59
2024/03/23 01:20:59;;;;;;;1.40;0.50;;;12.60;99.90;;;;;;5117183;28;20407;-60
2024/03/23 01:23:25;;;;;;;1.80;0.60;;;12.60;99.90;;;;;;5115582;28;20436;-59
2024/03/23 01:25:54;;;;;;;0.80;0.50;;;12.50;99.90;;;;;;5118901;28;20435;-59
2024/03/23 01:28:21;;;;;;;1.30;0.60;;;12.60;99.90;;;;;;5118389;28;20485;-60
2024/03/23 01:30:48;;;;;;;1.23;0.60;;;12.60;99.90;;;;;;5118865;28;20420;-59
2024/03/23 01:33:14;;;;;;;0.80;0.50;;;12.60;99.90;;;;;;5118933;28;20469;-59
2024/03/23 01:35:41;;;;;;;1.20;0.50;;;12.70;99.90;;;;;;5119658;28;20449;-59
2024/03/23 01:38:07;;;;;;;1.00;0.50;;;12.80;99.90;;;;;;5119288;28;20489;-59
2024/03/23 01:40:34;;;;;;;0.90;0.60;;;12.90;99.90;;;;;;5119112;28;20428;-59
2024/03/23 01:43:05;;;;;;;0.90;0.60;;;13.00;99.90;;;;;;5118544;28;20420;-59
2024/03/23 01:45:32;;;;;;;2.10;0.50;;;13.10;99.90;;;;;;5116001;28;20420;-60
2024/03/23 01:47:59;;;;;;;1.30;0.55;;;13.00;99.90;;;;;;5119333;28;20430;-59
2024/03/23 01:50:27;;;;;;;0.95;0.50;;;13.00;99.90;;;;;;5118837;28;20431;-59
2024/03/23 01:52:53;;;;;;;0.70;0.60;;;13.00;99.90;;;;;;5119112;28;20497;-59
2024/03/23 01:55:21;;;;;;;1.42;0.50;;;12.90;99.90;;;;;;5117204;28;20869;-59
2024/03/23 01:57:47;;;;;;;1.00;0.60;;;13.00;99.90;;;;;;5115864;28;20416;-59
2024/03/23 02:00:15;;;;;;;0.80;0.50;;;12.90;99.90;;;;;;5118771;28;20487;-60
2024/03/23 02:02:43;;;;;;;1.30;0.60;;;12.90;99.90;;;;;;5119140;28;20424;-59
2024/03/23 02:05:11;;;;;;;2.20;0.60;;;12.80;99.90;;;;;;5117752;28;20508;-60
2024/03/23 02:07:38;;;;;;;0.80;0.50;;;12.80;99.90;;;;;;5115850;28;20448;-60
2024/03/23 02:10:06;;;;;;;0.90;0.60;;;12.70;99.90;;;;;;5118465;28;20460;-59
2024/03/23 02:12:32;;;;;;;0.70;0.50;;;12.70;99.90;;;;;;5117465;28;20511;-59
2024/03/23 02:14:59;;;;;;;1.00;0.50;;;12.70;99.90;;;;;;5116993;28;20526;-60
2024/03/23 02:17:26;;;;;;;1.03;0.60;;;12.80;99.90;;;;;;5114235;28;20440;-59
2024/03/23 02:19:53;;;;;;;1.65;0.50;;;12.70;99.90;;;;;;5117175;28;20432;-59
2024/03/23 02:22:19;;;;;;;1.00;0.60;;;12.70;99.90;;;;;;5117463;28;20428;-59
2024/03/23 02:24:48;;;;;;;1.10;0.60;;;12.70;99.90;;;;;;5118106;28;20412;-59
2024/03/23 02:27:14;;;;;;;1.30;1.00;;;12.80;99.90;;;;;;5117666;28;20481;-59
2024/03/23 02:29:41;;;;;;;0.90;0.50;;;12.70;99.90;;;;;;5118103;28;20420;-59
2024/03/23 02:32:08;;;;;;;1.40;0.50;;;12.80;99.90;;;;;;5117305;28;20432;-59
2024/03/23 02:34:36;;;;;;;1.70;0.60;;;12.80;99.90;;;;;;5118172;28;20562;-60
2024/03/23 02:37:02;;;;;;;1.10;0.60;;;12.80;99.90;;;;;;5117837;28;20740;-59
2024/03/23 02:39:29;;;;;;;1.90;0.60;;;12.80;99.90;;;;;;5117847;28;20795;-60
2024/03/23 02:41:56;;;;;;;1.20;0.57;;;12.70;99.90;;;;;;5117882;28;20687;-59
2024/03/23 02:44:23;;;;;;;0.70;0.50;;;12.70;1.00;;;;;;5118021;28;20484;-60
2024/03/23 02:46:49;;;;;;;1.30;0.60;;;12.70;1.00;;;;;;5117418;28;20798;-60
2024/03/23 02:49:16;;;;;;;1.88;0.50;;;12.70;1.00;;;;;;5118069;28;20420;-60
2024/03/23 02:51:45;;;;;;;1.37;0.57;;;12.70;1.00;;;;;;5116773;28;20481;-60
2024/03/23 02:54:12;;;;;;;0.70;0.40;;;12.70;1.00;;;;;;5115095;28;20804;-60
2024/03/23 02:56:38;;;;;;;0.80;0.50;;;12.60;1.00;;;;;;5117251;28;20834;-60
2024/03/23 02:59:06;;;;;;;0.80;0.50;;;12.60;1.00;;;;;;5117780;28;21264;-59
2024/03/23 03:01:32;;;;;;;1.00;0.50;;;12.60;1.00;;;;;;5115210;28;20548;-60
2024/03/23 03:03:59;;;;;;;0.80;0.50;;;12.60;1.00;;;;;;5117560;28;20428;-60
2024/03/23 03:06:26;;;;;;;0.70;0.50;;;12.60;1.00;;;;;;5117361;28;20412;-60
2024/03/23 03:08:53;;;;;;;0.80;0.40;;;12.60;1.00;;;;;;5117858;28;20432;-60
2024/03/23 03:11:19;;;;;;;1.10;0.50;;;12.60;1.00;;;;;;5118051;28;20864;-59
2024/03/23 03:13:46;;;;;;;0.90;0.50;;;12.60;1.00;;;;;;5118679;28;20424;-60
2024/03/23 03:16:14;;;;;;;0.88;0.50;;;12.60;13.80;;;;;;5117625;28;20768;-59
2024/03/23 03:18:41;;;;;;;0.80;0.50;;;12.60;49.20;;;;;;5114298;28;20772;-59
2024/03/23 03:21:10;;;;;;;1.00;0.50;;;12.50;99.90;;;;;;5112595;28;20408;-60
2024/03/23 03:23:38;;;;;;;0.90;0.50;;;12.50;99.90;;;;;;5111861;28;20895;-59
2024/03/23 03:26:04;;;;;;;0.82;0.40;;;12.40;99.90;;;;;;5115729;28;20833;-60
2024/03/23 03:28:32;;;;;;;1.02;0.50;;;12.40;99.90;;;;;;5116425;28;20424;-60
2024/03/23 03:30:59;;;;;;;1.08;0.50;;;12.40;99.90;;;;;;5117485;28;20428;-60
2024/03/23 03:33:27;;;;;;;0.80;0.50;;;12.40;99.90;;;;;;5105142;28;20423;-60
2024/03/23 03:35:54;;;;;;;1.60;0.50;;;12.40;99.90;;;;;;5117111;28;20440;-59
2024/03/23 03:38:21;;;;;;;1.30;0.50;;;12.30;99.90;;;;;;5114228;28;20522;-59
2024/03/23 03:40:47;;;;;;;0.73;0.50;;;12.30;1.00;;;;;;5116487;28;20527;-59
2024/03/23 03:43:14;;;;;;;0.98;0.50;;;12.30;1.00;;;;;;5114524;28;20499;-59
2024/03/23 03:45:40;;;;;;;1.00;0.60;;;12.30;1.00;;;;;;5115284;28;20467;-59
2024/03/23 03:48:08;;;;;;;1.27;0.50;;;12.30;1.00;;;;;;5109698;28;20558;-59
2024/03/23 03:50:36;;;;;;;0.80;0.50;;;12.20;1.00;;;;;;5115372;28;20663;-59
2024/03/23 03:53:05;;;;;;;0.80;0.50;;;12.20;1.00;;;;;;5115240;28;20428;-60
2024/03/23 03:55:31;;;;;;;1.00;0.60;;;12.20;1.00;;;;;;5115852;28;20691;-59
2024/03/23 03:57:59;;;;;;;1.20;0.70;;;12.10;91.90;;;;;;5116071;28;20457;-60
2024/03/23 04:00:25;;;;;;;1.85;0.55;;;12.10;99.90;;;;;;5116602;28;20424;-59
2024/03/23 04:02:52;;;;;;;1.75;0.60;;;12.00;1.00;;;;;;5116998;28;20477;-59
2024/03/23 04:05:19;;;;;;;0.80;0.60;;;12.00;99.90;;;;;;5115941;28;20436;-59
2024/03/23 04:07:47;;;;;;;1.20;0.50;;;12.00;1.00;;;;;;5113887;28;20432;-60
2024/03/23 04:10:15;;;;;;;1.05;0.50;;;12.00;1.00;;;;;;5123353;27;20424;-60
2024/03/23 04:12:42;;;;;;;0.85;0.55;;;12.00;1.00;;;;;;5127593;27;20861;-60
2024/03/23 04:15:09;;;;;;;0.70;0.50;;;12.00;1.00;;;;;;5125201;27;20419;-59
2024/03/23 04:17:36;;;;;;;0.80;0.65;;;11.90;87.00;;;;;;5125894;27;20419;-59
2024/03/23 04:20:05;;;;;;;1.30;0.50;;;12.00;71.30;;;;;;5126874;27;20419;-60
2024/03/23 04:22:33;;;;;;;0.73;0.50;;;12.00;99.90;;;;;;5124339;27;20708;-60
2024/03/23 04:25:06;;;;;;;0.80;0.50;;;12.00;1.70;;;;;;5121521;27;20568;-59
2024/03/23 04:27:34;;;;;;;0.90;0.50;;;12.00;1.00;;;;;;5125434;27;20425;-59
2024/03/23 04:30:01;;;;;;;0.88;0.60;;;12.00;1.00;;;;;;5126321;27;20729;-59
2024/03/23 04:32:28;;;;;;;1.30;0.50;;;12.10;75.50;;;;;;5126587;27;20519;-59
2024/03/23 04:34:54;;;;;;;1.17;0.50;;;12.20;1.00;;;;;;5125135;27;20732;-59
2024/03/23 04:37:22;;;;;;;1.00;0.50;;;12.30;1.00;;;;;;5126841;27;20422;-59
2024/03/23 04:39:49;;;;;;;0.98;0.50;;;12.40;1.00;;;;;;5123519;27;20412;-59
2024/03/23 04:42:18;;;;;;;0.60;0.40;;;12.60;99.90;;;;;;5126658;27;20410;-59
2024/03/23 04:44:46;;;;;;;2.15;0.60;;;12.70;99.90;;;;;;5125814;27;20505;-60
2024/03/23 04:47:12;;;;;;;1.13;0.50;;;12.80;1.00;;;;;;5125446;27;20499;-59
2024/03/23 04:49:40;;;;;;;0.70;0.50;;;12.70;1.00;;;;;;5124280;27;20491;-59
2024/03/23 04:52:07;;;;;;;1.00;0.70;;;12.70;45.30;;;;;;5126276;27;20443;-59
2024/03/23 04:54:33;;;;;;;0.80;0.50;;;12.70;1.00;;;;;;5124181;28;20424;-59
2024/03/23 04:57:00;;;;;;;1.10;0.60;;;12.50;99.90;;;;;;5116184;28;20489;-59
2024/03/23 04:59:28;;;;;;;1.15;0.70;;;12.50;1.00;;;;;;5126077;28;20441;-59
2024/03/23 05:01:55;;;;;;;1.60;0.70;;;12.40;1.00;;;;;;5118742;28;20428;-59
2024/03/23 05:04:21;;;;;;;2.10;0.90;;;12.40;1.00;;;;;;5116654;28;20544;-59
2024/03/23 05:06:48;;;;;;;1.40;0.93;;;12.20;1.00;;;;;;5117500;28;20412;-59
2024/03/23 05:09:14;;;;;;;3.50;1.20;;;12.10;1.00;;;;;;5116710;28;20459;-60
2024/03/23 05:11:41;;;;;;;2.75;1.40;;;12.00;19.90;;;;;;5124169;28;20426;-60
2024/03/23 05:14:08;;;;;;;2.90;1.50;;;12.00;30.60;;;;;;5137571;28;20419;-60
2024/03/23 05:16:36;;;;;;;2.75;1.40;;;12.10;35.70;;;;;;5125993;28;20457;-60
2024/03/23 05:19:02;;;;;;;3.70;1.60;;;12.10;99.90;;;;;;5116814;28;20454;-60
2024/03/23 05:21:30;;;;;;;3.35;2.00;;;12.10;99.90;;;;;;5116899;28;20681;-60
2024/03/23 05:23:56;;;;;;;3.60;1.70;;;11.80;99.90;;;;;;5117070;28;20549;-59
2024/03/23 05:26:23;;;;;;;5.38;2.20;;;11.80;84.90;;;;;;5124801;28;20465;-59
2024/03/23 05:28:49;;;;;;;2.65;2.00;;;11.70;99.90;;;;;;5136754;27;20700;-58
2024/03/23 05:31:24;;;;;;;3.90;1.60;;;11.60;99.90;;;;;;5125964;28;20844;-58
2024/03/23 05:33:53;;;;;;;4.75;2.35;;;11.60;99.90;;;;;;5123628;28;20421;-58
2024/03/23 05:36:19;;;;;;;4.03;1.90;;;11.60;99.90;;;;;;5137149;28;20501;-58
2024/03/23 05:38:46;;;;;;;5.43;2.33;;;11.40;99.90;;;;;;5137417;28;20502;-59
2024/03/23 05:41:12;;;;;;;3.00;1.73;;;11.40;99.90;;;;;;5136137;28;20447;-58
2024/03/23 05:43:39;;;;;;;2.67;1.63;;;11.50;99.90;;;;;;5137157;28;20414;-59
2024/03/23 05:46:05;;;;;;;5.68;1.85;;;11.40;99.90;;;;;;5126662;28;20813;-59
2024/03/23 05:48:32;;;;;;;3.90;1.60;;;11.40;99.90;;;;;;5125473;28;20414;-59
2024/03/23 05:51:00;;;;;;;4.65;1.85;;;11.20;99.90;;;;;;5128498;28;20985;-59
2024/03/23 05:53:28;;;;;;;3.65;1.80;;;11.30;99.90;;;;;;5134342;27;20483;-58
2024/03/23 05:56:03;;;;;;;2.20;1.30;;;11.40;99.90;;;;;;5132563;27;20781;-59
2024/03/23 05:58:31;;;;;;;3.67;1.70;;;11.20;99.90;;;;;;5120374;28;20424;-57
2024/03/23 06:01:01;;;;;;;2.20;1.60;;;11.10;99.90;;;;;;5119773;28;20424;-57
2024/03/23 06:03:28;;;;;;;1.50;0.80;;;11.20;99.90;;;;;;5120689;27;20416;-58
2024/03/23 06:05:55;;;;;;;1.70;0.90;;;11.20;99.90;;;;;;5119118;28;20420;-58
2024/03/23 06:08:24;;;;;;;1.60;0.90;;;10.80;99.90;;;;;;5121992;27;20520;-60
2024/03/23 06:10:50;;;;;;;1.20;0.80;;;10.80;99.90;;;;;;5139682;27;20723;-59
2024/03/23 06:13:18;;;;;;;1.50;0.80;;;10.80;99.90;;;;;;5138306;27;20487;-60
2024/03/23 06:15:45;;;;;;;1.33;0.70;;;10.80;99.90;;;;;;5137426;27;20407;-59
2024/03/23 06:18:12;;;;;;;1.30;0.60;;;10.80;99.90;;;;;;5138526;27;20414;-59
2024/03/23 06:20:38;;;;;;;1.25;0.63;;;10.90;99.90;;;;;;5138476;27;20842;-59
2024/03/23 06:23:05;;;;;;;1.00;0.50;;;11.00;99.90;;;;;;5139964;27;20419;-61
2024/03/23 06:25:33;;;;;;;1.02;0.50;;;10.90;99.90;;;;;;5140198;27;20430;-61
2024/03/23 06:28:01;;;;;;;0.70;0.30;;;10.80;99.90;;;;;;5139649;27;20888;-60
2024/03/23 06:30:27;;;;;;;0.80;0.40;;;10.70;99.90;;;;;;5140577;27;20486;-61
2024/03/23 06:32:54;;;;;;;0.80;0.40;;;10.80;99.90;;;;;;5140269;27;20666;-61
2024/03/23 06:35:20;;;;;;;0.70;0.40;;;11.10;99.90;;;;;;5140479;27;20415;-61
2024/03/23 06:37:47;;;;;;;0.80;0.30;;;10.70;99.90;;;;;;5141088;27;20450;-61
2024/03/23 06:40:14;;;;;;;0.50;0.20;;;10.80;99.90;;;;;;5140421;27;20419;-62
2024/03/23 06:42:42;;;;;;;0.63;0.30;;;10.80;99.90;;;;;;5140997;27;20413;-61
2024/03/23 06:45:09;;;;;;;0.57;0.20;;;10.90;99.90;;;;;;5140251;27;20500;-62
2024/03/23 06:47:36;;;;;;;0.47;0.20;;;10.90;99.90;;;;;;5140519;27;20422;-62
2024/03/23 06:50:04;;;;;;;0.40;0.20;;;11.00;99.90;;;;;;5140380;27;20443;-62
2024/03/23 06:52:31;;;;;;;0.40;0.13;;;10.90;99.90;;;;;;5140197;27;20953;-62
2024/03/23 06:54:58;;;;;;;0.30;0.10;;;11.00;99.90;;;;;;5140136;27;20414;-62
2024/03/23 06:57:25;;;;;;;0.40;0.20;;;10.70;99.90;;;;;;5139547;27;20399;-62
2024/03/23 06:59:52;;;;;;;0.50;0.10;;;10.60;99.90;;;;;;5140358;27;20418;-62
2024/03/23 07:02:19;;;;;;;0.30;0.10;;;10.50;99.90;;;;;;5139914;27;20832;-60
2024/03/23 07:04:46;;;;;;;0.40;0.10;;;10.60;99.90;;;;;;5127986;27;20439;-64
2024/03/23 07:07:13;;;;;;;0.30;0.10;;;10.80;99.90;;;;;;5117400;28;20420;-63
2024/03/23 07:09:39;;;;;;;0.40;0.10;;;10.80;99.90;;;;;;5118251;28;20420;-64
2024/03/23 07:12:06;;;;;;;0.70;0.10;;;10.80;99.90;;;;;;5112008;28;20420;-61
2024/03/23 07:14:32;;;;;;;0.30;0.10;;;10.50;99.90;;;;;;5117674;28;20806;-63
2024/03/23 07:17:01;;;;;;;0.30;0.10;;;10.70;99.90;;;;;;5118365;28;20503;-63
2024/03/23 07:19:28;;;;;;;0.30;0.10;;;10.70;99.90;;;;;;5117425;28;20431;-63
2024/03/23 07:21:55;;;;;;;0.40;0.10;;;10.60;99.90;;;;;;5116896;28;20503;-62
2024/03/23 07:24:22;;;;;;;0.40;0.10;;;10.60;99.90;;;;;;5136720;27;20419;-63
2024/03/23 07:26:48;;;;;;;0.30;0.10;;;10.50;99.90;;;;;;5137676;27;20808;-62
2024/03/23 07:29:15;;;;;;;0.40;0.10;;;10.70;99.90;;;;;;5119006;27;20431;-63
2024/03/23 07:31:41;;;;;;;0.30;0.10;;;10.70;99.90;;;;;;5118379;28;20737;-61
2024/03/23 07:34:10;;;;;;;0.30;0.10;;;10.70;99.90;;;;;;5118502;28;20806;-62
2024/03/23 07:36:36;;;;;;;0.50;0.10;;;10.80;99.90;;;;;;5118467;28;20416;-59
2024/03/23 07:39:03;;;;;;;0.30;0.10;;;10.60;99.90;;;;;;5117664;28;20412;-60
2024/03/23 07:41:30;;;;;;;0.30;0.10;;;10.50;99.90;;;;;;5118248;27;20436;-60
2024/03/23 07:43:57;;;;;;;0.30;0.10;;;10.40;99.90;;;;;;5118163;27;20511;-60
2024/03/23 07:46:25;;;;;;;0.40;0.20;;;10.50;99.90;;;;;;5116844;28;20416;-61
2024/03/23 07:48:52;;;;;;;0.30;0.10;;;10.40;99.90;;;;;;5116581;28;20412;-60
2024/03/23 07:51:21;;;;;;;0.30;0.10;;;10.60;99.90;;;;;;5124150;27;20475;-60
2024/03/23 07:53:48;;;;;;;1.50;0.10;;;10.70;99.90;;;;;;5123073;27;20471;-60
2024/03/23 07:56:15;;;;;;;0.40;0.10;;;10.70;99.90;;;;;;5131500;27;20498;-59
2024/03/23 07:58:43;;;;;;;0.30;0.10;;;10.50;99.90;;;;;;5136417;27;20482;-59
2024/03/23 08:01:10;;;;;;;0.35;0.10;;;10.90;99.90;;;;;;5130752;27;20530;-60
2024/03/23 08:03:38;;;;;;;0.30;0.10;;;10.60;99.90;;;;;;5116591;28;20412;-59
2024/03/23 08:06:08;;;;;;;0.40;0.10;;;10.40;99.90;;;;;;5116972;28;20742;-59
2024/03/23 08:08:37;;;;;;;1.00;0.10;;;10.30;99.90;;;;;;5120828;27;20561;-58
2024/03/23 08:11:03;;;;;;;1.00;0.20;;;10.40;99.90;;;;;;5135404;27;20486;-58
2024/03/23 08:13:30;;;;;;;0.30;0.10;;;10.00;99.90;;;;;;5136803;27;20467;-59
2024/03/23 08:15:57;;;;;;;0.40;0.20;;;9.80;99.90;;;;;;5135782;27;20429;-58
2024/03/23 08:18:24;;;;;;;0.50;0.20;;;9.80;99.90;;;;;;5136300;27;20408;-59
2024/03/23 08:20:57;;;;;;;0.50;0.20;;;9.90;99.90;;;;;;5124311;27;20427;-60
2024/03/23 08:23:25;;;;;;;0.50;0.20;;;9.80;99.90;;;;;;5137700;27;20427;-59
2024/03/23 08:25:57;;;;;;;0.40;0.20;;;9.90;99.90;;;;;;5139833;27;20422;-59
2024/03/23 08:28:24;;;;;;;0.40;0.20;;;10.20;99.90;;;;;;5125761;27;20804;-59
2024/03/23 08:30:50;;;;;;;0.30;0.10;;;10.00;99.90;;;;;;5117510;27;20477;-59
2024/03/23 08:33:17;;;;;;;0.40;0.20;;;10.00;99.90;;;;;;5137064;27;20430;-59
2024/03/23 08:35:43;;;;;;;0.40;0.20;;;10.00;99.90;;;;;;5136477;27;20422;-61
2024/03/23 08:38:10;;;;;;;0.50;0.20;;;10.10;99.90;;;;;;5131389;27;20418;-59
2024/03/23 08:40:36;;;;;;;0.70;0.40;;;10.10;99.90;;;;;;5134014;27;20475;-60
2024/03/23 08:43:04;;;;;;;0.40;0.20;;;10.00;99.90;;;;;;5125263;27;20426;-59
2024/03/23 08:45:30;;;;;;;0.50;0.20;;;10.10;99.90;;;;;;5128616;27;20412;-59
2024/03/23 08:47:57;;;;;;;0.50;0.20;;;10.20;99.90;;;;;;5118747;28;20416;-59
2024/03/23 08:50:23;;;;;;;0.60;0.20;;;10.70;99.90;;;;;;5125601;27;20905;-60
2024/03/23 08:52:52;;;;;;;1.73;0.28;;;10.60;99.90;;;;;;5117559;27;20698;-59
2024/03/23 08:55:18;;;;;;;2.10;0.30;;;10.70;99.90;;;;;;5130627;28;20999;-59
2024/03/23 08:57:45;;;;;;;0.60;0.30;;;10.60;99.90;;;;;;5135443;28;20417;-59
2024/03/23 09:00:14;;;;;;;0.40;0.20;;;10.80;99.90;;;;;;5127514;28;20432;-58
2024/03/23 09:02:42;;;;;;;0.60;0.20;;;11.10;99.90;;;;;;5128498;28;20477;-58
2024/03/23 09:05:08;;;;;;;1.00;0.20;;;11.10;99.90;;;;;;5128812;28;20430;-58
2024/03/23 09:07:35;;;;;;;1.10;0.30;;;11.30;99.90;;;;;;5134467;28;20418;-59
2024/03/23 09:10:01;;;;;;;0.50;0.20;;;11.10;99.90;;;;;;5123777;28;20519;-60
2024/03/23 09:12:28;;;;;;;0.70;0.28;;;10.80;99.90;;;;;;5120892;28;20820;-59
2024/03/23 09:14:54;;;;;;;0.70;0.30;;;10.80;99.90;;;;;;5122533;28;20434;-60
2024/03/23 09:17:23;;;;;;;0.67;0.30;;;10.80;99.90;;;;;;5118334;28;20420;-60
2024/03/23 09:19:49;;;;;;;0.57;0.20;;;11.00;99.90;;;;;;5119998;28;20495;-60
2024/03/23 09:22:15;;;;;;;1.17;0.40;;;10.90;99.90;;;;;;5115631;28;20424;-60
2024/03/23 09:24:41;;;;;;;0.80;0.40;;;10.90;99.90;;;;;;5128145;28;20497;-60
2024/03/23 09:27:09;;;;;;;0.60;0.40;;;10.90;99.90;;;;;;5124730;27;20431;-60
2024/03/23 09:29:35;;;;;;;0.60;0.40;;;10.90;99.90;;;;;;5121065;27;21041;-61
2024/03/23 09:32:02;;;;;;;1.20;0.40;;;10.90;99.90;;;;;;5123811;27;20821;-60
2024/03/23 09:34:29;;;;;;;1.00;0.40;;;11.00;99.90;;;;;;5124618;27;20434;-61
2024/03/23 09:36:56;;;;;;;2.72;0.40;;;10.80;99.90;;;;;;5125294;27;20426;-60
2024/03/23 09:39:22;;;;;;;1.00;0.40;;;11.00;99.90;;;;;;5131702;27;20430;-61
2024/03/23 09:41:49;;;;;;;1.55;0.60;;;10.90;99.90;;;;;;5132231;27;20460;-60
2024/03/23 09:44:15;;;;;;;0.50;0.32;;;11.00;99.90;;;;;;5120342;27;20439;-60
2024/03/23 09:46:42;;;;;;;1.10;0.40;;;11.10;99.90;;;;;;5119375;27;20706;-60
2024/03/23 09:49:09;;;;;;;1.60;0.50;;;11.40;99.90;;;;;;5124393;27;20565;-60
2024/03/23 09:51:38;;;;;;;6.05;2.50;;;11.40;99.90;;;;;;5129102;27;20879;-59
2024/03/23 09:54:04;;;;;;;0.90;0.50;;;11.60;99.90;;;;;;5123461;27;20511;-60
2024/03/23 09:56:31;;;;;;;1.55;0.40;;;11.50;99.90;;;;;;5128470;27;20428;-59
2024/03/23 09:59:01;;;;;;;2.17;0.60;;;11.40;99.90;;;;;;5129056;27;20437;-59
2024/03/23 10:01:30;;;;;;;1.08;0.50;;;11.50;99.90;;;;;;5117644;27;20729;-59
2024/03/23 10:03:56;;;;;;;1.70;0.52;;;11.40;99.90;;;;;;5120744;27;21103;-59
2024/03/23 10:06:24;;;;;;;2.10;0.60;;;11.60;99.90;;;;;;5120554;27;20429;-59
2024/03/23 10:08:52;;;;;;;1.20;0.60;;;11.10;99.90;;;;;;5114883;27;20432;-59
2024/03/23 10:11:21;;;;;;;0.90;0.60;;;11.00;99.90;;;;;;5119697;27;20849;-59
2024/03/23 10:13:48;;;;;;;1.60;0.60;;;10.80;99.90;;;;;;5125149;27;20430;-59
2024/03/23 10:16:23;;;;;;;2.00;0.60;;;10.80;99.90;;;;;;5118190;27;20424;-59
2024/03/23 10:18:49;;;;;;;1.60;0.60;;;11.20;99.90;;;;;;5122060;27;20451;-59
2024/03/23 10:21:17;;;;;;;2.53;0.50;;;11.40;99.90;;;;;;5124887;27;20425;-59
2024/03/23 10:23:44;;;;;;;1.20;0.50;;;11.50;99.90;;;;;;5119953;27;20730;-59
2024/03/23 10:26:21;;;;;;;1.07;0.50;;;11.40;99.90;;;;;;5118018;27;20435;-59
2024/03/23 10:28:54;;;;;;;2.00;0.40;;;11.40;99.90;;;;;;5127762;27;20834;-59
2024/03/23 10:31:22;;;;;;;1.30;0.50;;;10.70;99.90;;;;;;5122206;27;20435;-59
2024/03/23 10:33:49;;;;;;;1.33;0.60;;;10.80;99.90;;;;;;5122166;27;20473;-59
2024/03/23 10:36:16;;;;;;;1.35;0.50;;;11.00;99.90;;;;;;5122539;27;20844;-59
2024/03/23 10:38:44;;;;;;;1.02;0.50;;;10.80;99.90;;;;;;5118760;27;20436;-59
2024/03/23 10:41:11;;;;;;;1.00;0.57;;;10.90;99.90;;;;;;5113495;27;20693;-59
2024/03/23 10:43:39;;;;;;;1.00;0.40;;;11.00;99.90;;;;;;5125014;27;20730;-59
2024/03/23 10:46:07;;;;;;;1.47;0.50;;;11.40;99.90;;;;;;5130070;27;20431;-59
2024/03/23 10:48:33;;;;;;;2.08;0.50;;;11.40;99.90;;;;;;5121265;27;20439;-58
2024/03/23 10:51:00;;;;;;;1.88;0.60;;;11.40;99.90;;;;;;5122683;27;20822;-59
2024/03/23 10:53:28;;;;;;;1.75;0.70;;;11.20;99.90;;;;;;5130029;27;20487;-58
2024/03/23 10:55:56;;;;;;;1.00;0.60;;;10.80;99.90;;;;;;5119279;27;20434;-58
2024/03/23 10:58:28;;;;;;;1.00;0.60;;;10.70;99.90;;;;;;5117519;27;20841;-57
2024/03/23 11:00:58;;;;;;;0.80;0.40;;;10.30;99.90;;;;;;5126315;27;20431;-55
2024/03/23 11:03:31;;;;;;;1.23;0.40;;;10.30;99.90;;;;;;5121591;27;20884;-55
2024/03/23 11:05:58;;;;;;;0.60;0.30;;;9.50;99.90;;;;;;5122903;27;20764;-57
2024/03/23 11:08:31;;;;;;;0.50;0.30;;;9.10;99.90;;;;;;5121570;27;20438;-58
2024/03/23 11:11:14;;;;;;;0.60;0.30;;;8.80;1.00;;;;;;5127322;27;20454;-59
2024/03/23 11:13:40;;;;;;;0.90;0.30;;;8.30;1.00;;;;;;5118302;27;20435;-59
2024/03/23 11:16:16;;;;;;;0.50;0.30;;;8.50;1.00;;;;;;5125368;27;20439;-61
2024/03/23 11:18:43;;;;;;;0.80;0.35;;;9.10;1.00;;;;;;5116409;27;20748;-61
2024/03/23 11:21:10;;;;;;;1.50;0.40;;;9.90;99.90;;;;;;5131521;27;20419;-61
2024/03/23 11:23:36;;;;;;;1.20;0.30;;;10.00;99.90;;;;;;5120106;27;20428;-63
2024/03/23 11:26:07;;;;;;;3.50;1.40;;;9.70;99.90;;;;;;5129534;27;20833;-61
2024/03/23 11:28:33;;;;;;;1.30;0.30;;;9.70;99.90;;;;;;5123239;27;20429;-62
2024/03/23 11:31:00;;;;;;;0.60;0.30;;;10.10;99.90;;;;;;5114465;27;20441;-61
2024/03/23 11:33:29;;;;;;;0.90;0.30;;;10.40;99.90;;;;;;5114487;27;20432;-61
2024/03/23 11:35:56;;;;;;;0.70;0.38;;;10.90;99.90;;;;;;5115063;27;20633;-59
2024/03/23 11:38:22;;;;;;;1.15;0.40;;;10.20;99.90;;;;;;5117918;27;20579;-60
2024/03/23 11:40:50;;;;;;;1.20;0.40;;;10.20;99.90;;;;;;5124680;27;20513;-59
2024/03/23 11:43:17;;;;;;;1.00;0.30;;;10.80;99.90;;;;;;5115405;27;20436;-60
2024/03/23 11:45:45;;;;;;;0.50;0.30;;;11.40;99.90;;;;;;5118650;27;20748;-58
2024/03/23 11:48:12;;;;;;;1.52;0.30;;;12.00;99.90;;;;;;5122057;27;20427;-58
2024/03/23 11:50:43;;;;;;;0.45;0.30;;;12.30;99.90;;;;;;5116753;27;20416;-57
2024/03/23 11:53:12;;;;;;;0.70;0.30;;;12.20;99.90;;;;;;5133835;27;20458;-57
2024/03/23 11:55:44;;;;;;;0.80;0.30;;;12.00;99.90;;;;;;5132686;27;20435;-55
2024/03/23 11:58:10;;;;;;;0.50;0.20;;;11.90;99.90;;;;;;5114914;28;20477;-56
2024/03/23 12:00:37;;;;;;;0.50;0.20;;;11.30;99.90;;;;;;5115694;27;20434;-55
2024/03/23 12:03:04;;;;;;;0.47;0.20;;;11.30;99.90;;;;;;5118035;27;20790;-57
2024/03/23 12:05:31;;;;;;;0.60;0.20;;;11.20;99.90;;;;;;5117037;27;20457;-58
2024/03/23 12:08:19;;;;;;;0.40;0.20;;;11.60;99.90;;;;;;5116315;28;20412;-59
2024/03/23 12:10:47;;;;;;;1.10;0.20;;;11.40;99.90;;;;;;5132958;27;20490;-58
2024/03/23 12:13:17;;;;;;;1.40;0.30;;;11.40;99.90;;;;;;5115362;28;20531;-58
2024/03/23 12:15:47;;;;;;;0.80;0.20;;;11.50;99.90;;;;;;5115633;28;20512;-57
2024/03/23 12:18:14;;;;;;;1.30;0.20;;;11.30;99.90;;;;;;5115469;28;20416;-59
2024/03/23 12:20:41;;;;;;;0.90;0.20;;;11.30;99.90;;;;;;5117158;27;20431;-58
2024/03/23 12:23:09;;;;;;;0.70;0.20;;;11.40;99.90;;;;;;5115276;27;20440;-58
2024/03/23 12:25:38;;;;;;;0.90;0.30;;;11.20;99.90;;;;;;5113898;28;20420;-58
2024/03/23 12:28:06;;;;;;;1.58;0.20;;;11.20;99.90;;;;;;5116471;27;20822;-58
2024/03/23 12:30:34;;;;;;;0.80;0.30;;;11.30;99.90;;;;;;5115246;28;20412;-57
2024/03/23 12:33:00;;;;;;;0.50;0.20;;;11.70;99.90;;;;;;5117609;27;20487;-58
2024/03/23 12:35:27;;;;;;;0.88;0.30;;;12.00;99.90;;;;;;5123518;27;20427;-59
2024/03/23 12:37:53;;;;;;;1.10;0.30;;;12.50;99.90;;;;;;5118770;27;20488;-58
2024/03/23 12:40:20;;;;;;;1.20;0.40;;;12.50;99.90;;;;;;5127134;27;20434;-58
2024/03/23 12:42:48;;;;;;;0.90;0.25;;;12.40;99.90;;;;;;5116518;28;20529;-58
2024/03/23 12:45:15;;;;;;;1.98;0.40;;;12.20;99.90;;;;;;5115321;27;20660;-58
2024/03/23 12:47:41;;;;;;;0.90;0.60;;;12.10;99.90;;;;;;5120674;27;20432;-57
2024/03/23 12:50:09;;;;;;;2.20;0.30;;;12.20;99.90;;;;;;5113813;27;20859;-55